Montcalm, Louisiana
Current Conditions -  °F | °C
As of 5:55 PM on Saturday 22 Nov 2014 (Local Time) from KRSN Reporting Station
Broken Clouds Broken Clouds  
Wind Chill: 64°   Ceiling: 3200
Heat Index: 64°   Visibility: 10mi
Dew Point: 58°   Wind: 6mph
Humidity: 80%   Direction: 120°ESE
Pressure: 30"   Gusts: NA
Location:  32.5513°N, 92.8137°W
Report Text: KRSN 222355Z AUTO 12005KT 10SM BKN032 18/15 A3000 RMK AO2 LTG DSNT SW T01800146 10218 20180
Loading
Personal Weather Stations






























Interactive Weather Map New forecast layout! Learn more

10-Day Weather Forecast

Advertisements
Track Severe Weather on mobile